AirNav   Pilot Hours Calculator
 
 1572 users online  

28MA Cannizzaro Field Airport
Southwick, Massachusetts, USA

GOING TO SOUTHWICK?


FAA INFORMATION EFFECTIVE 01 DECEMBER 2022

Location

FAA Identifier: 28MA
Lat/Long: 42-04-47.3000N 072-49-05.3000W
42-04.788333N 072-49.088333W
42.0798056,-72.8181389
(estimated)
Elevation: 250 ft. / 76 m (estimated)
Variation: 15W (1995)
From city: 3 miles W of SOUTHWICK, MA
Time zone: UTC -5 (UTC -4 during Daylight Saving Time)
Zip code: 01077

Airport Operations

Airport use: Private use. Permission required prior to landing
Activation date: 08/1998
Control tower: no
ARTCC: BOSTON CENTER
FSS: BURLINGTON FLIGHT SERVICE STATION
Attendance: UNATNDD
Segmented circle: no

Airport Communications

WX ASOS at BAF (7 nm NE): 127.1 (413-568-2267)
WX ASOS at BDL (10 nm SE): 118.15 (860-386-3480)

Nearby radio navigation aids

VOR radial/distance  VOR name  Freq  Var
BAFr237/6.7BARNES VORTAC113.0014W
CTRr168/14.0CHESTER VOR/DME115.1013W
HFDr348/29.0HARTFORD VOR/DME114.9013W
PWLr074/39.6PAWLING VOR/DME114.3012W

Airport Services

Runway Information

Runway 3/21

Dimensions: 1600 x 50 ft. / 488 x 15 m
Surface: turf
RUNWAY 3  RUNWAY 21
Traffic pattern: leftleft

Airport Ownership and Management from official FAA records

Ownership: Privately-owned
Owner: MICHAEL & NANCY CANNIZZARO
327 NORTH LOOMIS STREET
SOUTHWICK, MA 01077
Phone 413-569-5857
Manager: MICHAEL & NANCY CANNIZZARO
327 NORTH LOOMIS STREET
SOUTHWICK, MA 01077
Phone 413-569-5857

Additional Remarks

A58-03 03/21 80 FT TREES ALONG S SIDE OF RY.
FOR CD CTC YANKEE APCH AT 860-386-3597

Instrument Procedures

There are no published instrument procedures at 28MA.

Some nearby airports with instrument procedures:

KBAF - Westfield-Barnes Regional Airport (7 nm NE)
KBDL - Bradley International Airport (10 nm SE)
KCEF - Westover Air Reserve Base/Metropolitan Airport (14 nm NE)
7B2 - Northampton Airport (18 nm NE)
KHFD - Hartford-Brainard Airport (22 nm S)
 
Loc | Ops | Rwys | IFR | FBO | Links
Com | Nav | Svcs | Stats | Notes
Area around 28MA (Cannizzaro Field Airport)
 
Road maps at: MapQuest Bing Google
 
Aerial photo
No photo
 
Sectional chart

 
Airport distance calculator
Flying to Cannizzaro Field Airport? Find the distance to fly.

From to 28MA

Sunrise and sunset
Times for 06-Dec-2022
 Local
(UTC-5)
 Zulu
(UTC)
Morning civil twilight06:3511:35
Sunrise07:0612:06
Sunset16:1921:19
Evening civil twilight16:5021:50

Current date and time
Zulu (UTC)  06-Dec-2022 18:33:39
Local (UTC-5)  06-Dec-2022 13:33:39
 
METAR
KBAF 
7nm NE 
061753Z 33005KT 10SM -RA FEW027 BKN060 OVC095 06/03 A3034 RMK AO2 SLP279 P0000 60000 T00560033 10056 20006 56017
KBDL 
11nm SE 
061751Z 00000KT 9SM -RA FEW040 BKN070 OVC085 08/05 A3034 RMK AO2 RAB06 SLP274 P0000 60000 T00780050 10078 20017 58015
KCEF 
15nm NE 
061755Z 03003KT 10SM -RA FEW035 BKN060 OVC085 07/05 A3032 RMK AO2A SLP276 P0000 60000 T00660048 10076 20000 57015
TAF
KBAF 
7nm NE 
061729Z 0618/0718 12004KT P6SM -SHRA OVC050 FM062200 13005KT 6SM -SHRA BR OVC015 FM070200 12005KT 2SM -SHRA BR OVC010 WS020/15035KT FM070400 12005KT 3SM -SHRA BR OVC008 WS020/15035KT
KBDL 
11nm SE 
061729Z 0618/0724 14005KT P6SM -SHRA OVC050 FM062200 14006KT 6SM -SHRA BR OVC025 FM070000 14007KT 5SM -SHRA BR OVC015 FM070300 13008KT 4SM -SHRA BR OVC008 FM072000 16004KT 3SM BR VCSH OVC008
KCEF 
15nm NE 
061404Z 0614/0718 VRB06KT 9999 FEW009 SCT015 BKN050 OVC170 510102 QNH3032INS BECMG 0618/0619 15009KT 9999 VCSH SCT007 BKN015 OVC050 610706 510102 QNH3032INS BECMG 0621/0622 15009KT 8000 -RA BR OVC005 WS020/17032KT 620805 QNH3029INS BECMG 0701/0702 15009KT 4800 -RA BR OVC003 WS020/18033KT QNH3013INS TEMPO 0706/0712 3200 RA BR TX11/0712Z TN05/0614Z
NOTAMs
Click for the latest NOTAMs
NOTAMs are issued by the DoD/FAA and will open in a separate window not controlled by AirNav.

 

 
 

Would you like to see your business listed on this page?

 If your business provides an interesting product or service to pilots, flight crews, aircraft, or users of the Cannizzaro Field Airport, you should consider listing it here.  To start the listing process, click on the button below
 
Add a business
 

Other Pages about Cannizzaro Field Airport

Update a link
 
Copyright © AirNav, LLC. All rights reserved. Privacy Policy  Contact